Time;durP1;ratioP1;P1;durP2;ratioP2;P2;SDS_P1;SDS_P2;PMS_P1;PMS_P2;Temp;Humidity;BMP_temperature;BMP_pressure;BME280_temperature;BME280_humidity;BME280_pressure;Samples;Min_cycle;Max_cycle;Signal;HPM_P1;HPM_P2
2021/03/29 00:01:15;;;;;;;8.57;4.07;;;;;;;6.79;88.60;101394.44;6365351;28;20238;-73
2021/03/29 00:04:33;;;;;;;7.47;4.40;;;;;;;6.71;89.12;101391.78;6365354;28;20259;-72
2021/03/29 00:07:59;;;;;;;7.73;4.47;;;;;;;6.59;90.19;101390.50;6366733;28;20227;-70
2021/03/29 00:11:04;;;;;;;4.80;4.33;;;;;;;6.53;90.65;101380.34;6366655;28;20220;-72
2021/03/29 00:14:08;;;;;;;6.63;4.60;;;;;;;6.57;90.69;101387.13;6366582;28;20186;-71
2021/03/29 00:17:14;;;;;;;4.60;3.97;;;;;;;6.55;90.56;101378.34;6366168;28;20183;-71
2021/03/29 00:20:22;;;;;;;7.50;4.60;;;;;;;6.58;90.89;101377.94;6366057;28;20193;-72
2021/03/29 00:23:28;;;;;;;7.00;4.80;;;;;;;6.55;90.94;101383.75;6365897;28;20241;-71
2021/03/29 00:26:31;;;;;;;6.37;4.60;;;;;;;6.76;90.06;101381.22;6365933;28;20253;-72
2021/03/29 00:29:35;;;;;;;6.83;4.53;;;;;;;6.68;90.18;101381.28;6364747;28;20182;-72
2021/03/29 00:32:45;;;;;;;6.00;4.50;;;;;;;6.86;89.66;101381.84;6365751;28;20190;-72
2021/03/29 00:35:50;;;;;;;7.10;5.23;;;;;;;6.92;89.26;101370.28;6365122;28;20186;-71
2021/03/29 00:38:55;;;;;;;10.77;4.57;;;;;;;6.79;90.31;101368.16;6365903;28;20185;-71
2021/03/29 00:42:00;;;;;;;4.87;4.50;;;;;;;6.83;90.05;101371.38;6365592;28;20192;-72
2021/03/29 00:45:06;;;;;;;6.63;4.73;;;;;;;6.73;91.14;101368.03;6364756;28;20210;-71
2021/03/29 00:48:18;;;;;;;9.10;4.73;;;;;;;6.58;92.27;101367.09;6363446;28;20354;-71
2021/03/29 00:51:25;;;;;;;6.93;4.90;;;;;;;6.72;91.75;101364.50;6364307;28;20242;-71
2021/03/29 00:54:35;;;;;;;5.47;4.60;;;;;;;6.58;92.60;101377.94;6365468;28;20231;-71
2021/03/29 00:57:40;;;;;;;7.47;4.77;;;;;;;6.68;92.17;101384.84;6365556;28;20192;-72
2021/03/29 01:00:46;;;;;;;7.40;4.43;;;;;;;6.72;92.08;101374.50;6368521;22;20226;-72
2021/03/29 01:03:58;;;;;;;9.10;5.17;;;;;;;6.66;92.49;101372.47;6289500;28;20218;-72
2021/03/29 01:07:05;;;;;;;5.43;4.90;;;;;;;6.73;92.21;101381.59;6288657;28;20253;-72
2021/03/29 01:10:10;;;;;;;9.13;5.10;;;;;;;6.87;91.27;101383.53;6288688;28;20384;-72
2021/03/29 01:13:20;;;;;;;6.30;5.07;;;;;;;6.75;92.03;101387.69;6288890;28;20214;-73
2021/03/29 01:16:28;;;;;;;5.63;4.90;;;;;;;6.83;91.31;101393.06;6288479;28;20378;-73
2021/03/29 01:19:53;;;;;;;5.33;4.83;;;;;;;6.87;91.07;101394.38;6288441;28;20306;-73
2021/03/29 01:22:59;;;;;;;5.87;4.50;;;;;;;6.88;91.10;101380.63;6288325;28;20185;-73
2021/03/29 01:26:09;;;;;;;6.80;4.80;;;;;;;6.95;90.72;101397.06;6288070;28;20234;-73
2021/03/29 01:29:16;;;;;;;5.23;4.70;;;;;;;6.90;90.77;101378.63;6288546;28;20188;-73
2021/03/29 01:32:25;;;;;;;5.20;4.73;;;;;;;6.95;90.29;101383.50;6287447;28;20185;-73
2021/03/29 01:35:32;;;;;;;5.47;5.07;;;;;;;7.04;89.63;101387.81;6289467;28;20188;-75
2021/03/29 01:38:38;;;;;;;5.17;4.70;;;;;;;6.96;90.11;101373.50;6289090;28;20188;-73
2021/03/29 01:41:42;;;;;;;7.73;5.03;;;;;;;7.03;90.44;101378.00;6288894;28;20231;-72
2021/03/29 01:44:47;;;;;;;7.10;4.70;;;;;;;7.00;89.86;101383.78;6289204;28;20211;-73
2021/03/29 01:47:51;;;;;;;6.07;5.30;;;;;;;6.92;90.36;101381.13;6289091;28;20233;-73
2021/03/29 01:50:55;;;;;;;8.83;5.20;;;;;;;6.99;90.39;101378.53;6288692;28;20191;-72
2021/03/29 01:53:58;;;;;;;5.10;4.73;;;;;;;7.01;89.89;101374.59;6287538;28;20429;-73
2021/03/29 01:57:05;;;;;;;8.23;5.30;;;;;;;7.04;89.63;101390.53;6288680;28;20184;-72
2021/03/29 02:00:13;;;;;;;4.97;4.33;;;;;;;7.21;88.89;101386.69;6287709;28;20196;-72
2021/03/29 02:03:30;;;;;;;5.80;5.18;;;;;;;7.22;88.46;101382.09;6287279;28;20515;-73
2021/03/29 02:06:35;;;;;;;6.63;4.53;;;;;;;7.19;89.00;101377.88;6287325;28;20382;-73
2021/03/29 02:09:39;;;;;;;5.10;4.40;;;;;;;7.15;89.13;101371.13;6287381;28;20188;-72
2021/03/29 02:12:44;;;;;;;6.00;4.80;;;;;;;7.21;88.74;101381.25;6288021;28;20191;-72
2021/03/29 02:15:54;;;;;;;5.30;4.80;;;;;;;7.15;89.28;101381.13;6287149;28;20525;-72
2021/03/29 02:19:00;;;;;;;5.13;4.63;;;;;;;7.11;89.11;101363.53;6287013;28;20185;-72
2021/03/29 02:22:05;;;;;;;4.77;4.30;;;;;;;7.19;88.85;101366.19;6288617;28;20188;-72
2021/03/29 02:25:12;;;;;;;5.73;5.20;;;;;;;7.07;89.43;101363.03;6287770;28;20215;-72
2021/03/29 02:28:16;;;;;;;8.60;5.00;;;;;;;6.91;90.49;101380.28;6287810;28;20188;-73
2021/03/29 02:31:24;;;;;;;7.75;4.90;;;;;;;6.96;90.01;101358.03;6288053;28;20184;-73
2021/03/29 02:34:28;;;;;;;10.90;6.13;;;;;;;7.14;89.41;101385.69;6287760;28;20241;-73
2021/03/29 02:37:31;;;;;;;7.47;4.83;;;;;;;7.08;89.71;101385.59;6287736;28;20187;-73
2021/03/29 02:40:35;;;;;;;6.63;5.00;;;;;;;6.96;90.37;101390.59;6287676;28;20184;-73
2021/03/29 02:43:46;;;;;;;5.40;4.63;;;;;;;7.00;90.27;101378.38;6287785;28;20239;-72
2021/03/29 02:46:50;;;;;;;8.20;4.60;;;;;;;7.17;89.54;101385.34;6287859;28;20259;-72
2021/03/29 02:49:56;;;;;;;7.13;5.07;;;;;;;7.14;89.56;101383.00;6286901;28;20262;-72
2021/03/29 02:53:04;;;;;;;6.50;4.70;;;;;;;7.02;90.12;101398.00;6287815;28;20188;-73
2021/03/29 02:56:14;;;;;;;6.33;5.30;;;;;;;6.86;90.99;101392.69;6286276;28;20191;-72
2021/03/29 02:59:21;;;;;;;8.93;5.13;;;;;;;6.87;91.31;101394.38;6286198;28;20478;-73
2021/03/29 03:02:26;;;;;;;4.93;4.53;;;;;;;7.15;90.00;101381.97;6286953;28;20232;-73
2021/03/29 03:05:31;;;;;;;4.70;4.30;;;;;;;7.12;89.98;101389.63;6287292;28;20278;-72
2021/03/29 03:08:35;;;;;;;5.45;4.90;;;;;;;7.14;89.65;101380.28;6287614;28;20188;-73
2021/03/29 03:11:39;;;;;;;4.67;4.23;;;;;;;7.26;89.25;101384.28;6286253;28;20419;-72
2021/03/29 03:14:42;;;;;;;5.10;4.60;;;;;;;7.29;88.74;101370.31;6287284;28;20227;-73
2021/03/29 03:17:47;;;;;;;5.93;4.47;;;;;;;7.21;88.90;101359.56;6286117;28;20251;-73
2021/03/29 03:20:50;;;;;;;5.67;4.47;;;;;;;7.26;89.13;101368.00;6287315;28;20286;-74
2021/03/29 03:23:55;;;;;;;4.83;3.97;;;;;;;7.25;89.18;101371.72;6281340;28;20212;-73
2021/03/29 03:27:03;;;;;;;6.90;4.43;;;;;;;7.35;88.51;101372.31;6292144;28;20216;-73
2021/03/29 03:30:09;;;;;;;4.73;4.10;;;;;;;7.29;88.45;101383.88;6291079;28;20356;-73
2021/03/29 03:33:24;;;;;;;6.40;4.07;;;;;;;7.26;88.66;101378.84;6291977;28;20185;-73
2021/03/29 03:36:30;;;;;;;5.60;3.97;;;;;;;7.12;89.23;101386.91;6291116;28;20255;-73
2021/03/29 03:39:34;;;;;;;4.73;4.33;;;;;;;7.25;89.04;101387.16;6291071;28;20398;-73
2021/03/29 03:42:38;;;;;;;3.83;3.60;;;;;;;7.34;88.50;101386.94;6291731;28;20192;-73
2021/03/29 03:45:45;;;;;;;4.70;4.33;;;;;;;7.09;89.36;101404.41;6291637;28;20215;-73
2021/03/29 03:48:49;;;;;;;5.00;3.80;;;;;;;7.03;89.83;101378.00;6291928;28;20239;-73
2021/03/29 03:51:53;;;;;;;4.87;3.90;;;;;;;7.27;88.67;101391.38;6290430;28;20220;-71
2021/03/29 03:54:56;;;;;;;5.43;3.63;;;;;;;7.16;88.47;101383.69;6290195;28;20226;-72
2021/03/29 03:58:01;;;;;;;4.80;3.60;;;;;;;6.97;89.65;101386.00;6291699;28;20255;-72
2021/03/29 04:01:07;;;;;;;3.37;3.23;;;;;;;7.21;88.90;101397.53;6291288;28;20241;-72
2021/03/29 04:04:11;;;;;;;4.60;3.63;;;;;;;7.29;88.26;101389.31;6291324;28;20222;-72
2021/03/29 04:07:15;;;;;;;4.77;3.40;;;;;;;7.03;89.56;101388.88;6290222;28;20375;-72
2021/03/29 04:10:23;;;;;;;5.80;3.80;;;;;;;7.14;88.98;101391.13;6291146;28;20248;-75
2021/03/29 04:13:28;;;;;;;3.67;3.47;;;;;;;7.08;89.29;101394.59;6289861;28;20207;-72
2021/03/29 04:16:32;;;;;;;4.10;3.67;;;;;;;7.09;88.76;101377.25;6289959;28;20196;-73
2021/03/29 04:19:35;;;;;;;6.67;3.40;;;;;;;7.03;89.91;101391.56;6291354;28;20188;-73
2021/03/29 04:22:39;;;;;;;4.40;3.20;;;;;;;6.96;90.10;101382.44;6289794;28;20246;-73
2021/03/29 04:25:42;;;;;;;3.63;3.20;;;;;;;7.10;89.55;101388.97;6290949;28;20212;-73
2021/03/29 04:29:12;;;;;;;3.50;3.13;;;;;;;7.19;88.82;101380.56;6290935;28;20184;-72
2021/03/29 04:32:15;;;;;;;3.40;3.20;;;;;;;7.20;88.46;101374.13;6289508;28;20353;-72
2021/03/29 04:35:21;;;;;;;3.40;3.20;;;;;;;6.98;89.30;101374.16;6289878;28;20188;-73
2021/03/29 04:38:25;;;;;;;5.37;3.37;;;;;;;6.87;89.98;101384.41;6290553;28;20222;-73
2021/03/29 04:41:28;;;;;;;5.23;3.00;;;;;;;6.97;89.51;101378.72;6272262;28;20200;-73
2021/03/29 04:44:32;;;;;;;4.43;3.47;;;;;;;6.83;90.29;101368.66;6290349;28;20208;-73
2021/03/29 04:47:36;;;;;;;3.43;3.17;;;;;;;6.87;89.90;101378.97;6289285;28;20416;-73
2021/03/29 04:50:40;;;;;;;6.20;3.37;;;;;;;6.86;89.92;101371.00;6288993;28;20441;-73
2021/03/29 04:53:43;;;;;;;3.50;3.20;;;;;;;6.73;91.00;101376.16;6288910;28;20489;-72
2021/03/29 04:56:46;;;;;;;5.60;3.10;;;;;;;6.82;90.38;101375.09;6290071;28;20191;-72
2021/03/29 04:59:50;;;;;;;3.50;3.07;;;;;;;6.87;89.81;101369.97;6288838;28;20387;-73
2021/03/29 05:02:53;;;;;;;5.30;2.90;;;;;;;6.74;90.89;101377.88;6289422;28;20522;-73
2021/03/29 05:05:57;;;;;;;3.47;3.07;;;;;;;6.66;91.68;101394.19;6289933;28;20246;-72
2021/03/29 05:09:00;;;;;;;6.40;2.90;;;;;;;6.74;91.67;101380.56;6289996;28;20192;-73
2021/03/29 05:12:10;;;;;;;3.30;3.07;;;;;;;6.95;90.65;101380.78;6288544;28;20211;-73
2021/03/29 05:15:14;;;;;;;3.00;2.80;;;;;;;7.01;90.21;101396.31;6289549;28;20238;-73
2021/03/29 05:18:27;;;;;;;3.03;2.80;;;;;;;7.04;90.34;101387.81;6289769;28;20251;-73
2021/03/29 05:21:32;;;;;;;2.77;2.57;;;;;;;7.08;90.19;101397.31;6289406;28;20184;-73
2021/03/29 05:24:37;;;;;;;5.40;2.50;;;;;;;7.20;89.86;101400.41;6289554;28;20254;-73
2021/03/29 05:27:40;;;;;;;3.03;2.67;;;;;;;7.26;88.81;101399.72;6289504;28;20253;-73
2021/03/29 05:30:44;;;;;;;5.88;2.45;;;;;;;7.05;90.03;101399.53;6289311;28;20187;-73
2021/03/29 05:33:47;;;;;;;3.20;2.90;;;;;;;7.40;88.85;101407.91;6289063;28;20190;-72
2021/03/29 05:36:51;;;;;;;2.70;2.60;;;;;;;7.39;88.54;101400.78;6289056;28;20226;-74
2021/03/29 05:39:57;;;;;;;4.40;2.93;;;;;;;7.38;88.79;101393.66;6288768;28;20184;-74
2021/03/29 05:43:01;;;;;;;2.93;2.50;;;;;;;7.33;89.30;101395.22;6289131;28;20185;-73
2021/03/29 05:46:04;;;;;;;2.80;2.60;;;;;;;7.39;88.97;101395.38;6287460;28;20261;-73
2021/03/29 05:49:08;;;;;;;2.90;2.70;;;;;;;7.41;88.57;101382.44;6288540;28;20183;-72
2021/03/29 05:52:12;;;;;;;5.83;2.93;;;;;;;7.52;88.42;101401.00;6288774;28;20192;-73
2021/03/29 05:55:20;;;;;;;5.40;2.90;;;;;;;7.62;87.95;101386.31;6288574;28;20226;-73
2021/03/29 05:58:38;;;;;;;5.20;2.50;;;;;;;7.61;87.92;101387.34;6288626;28;20262;-73
2021/03/29 06:01:44;;;;;;;2.47;2.30;;;;;;;7.55;88.01;101389.75;6288688;28;20263;-72
2021/03/29 06:04:49;;;;;;;2.77;2.57;;;;;;;7.51;88.06;101388.47;6287093;28;20580;-72
2021/03/29 06:07:58;;;;;;;5.20;2.63;;;;;;;7.56;87.51;101401.47;6279623;28;20479;-73
2021/03/29 06:11:02;;;;;;;3.40;2.53;;;;;;;7.76;86.72;101397.19;6287082;28;20290;-73
2021/03/29 06:14:14;;;;;;;2.60;2.40;;;;;;;7.87;86.46;101393.19;6288011;28;20190;-72
2021/03/29 06:17:21;;;;;;;2.10;2.10;;;;;;;7.86;85.74;101395.06;6269014;28;20234;-72
2021/03/29 06:20:25;;;;;;;2.80;2.60;;;;;;;7.86;85.42;101396.91;6287890;28;20188;-72
2021/03/29 06:23:32;;;;;;;2.42;2.22;;;;;;;7.77;86.01;101398.06;6287409;28;20184;-72
2021/03/29 06:26:36;;;;;;;2.60;2.00;;;;;;;7.87;86.06;101414.91;6287721;28;20212;-72
2021/03/29 06:29:39;;;;;;;5.97;2.45;;;;;;;8.03;85.57;101393.03;6286486;28;20184;-72
2021/03/29 06:32:53;;;;;;;4.20;2.60;;;;;;;7.93;85.30;101404.19;6287494;28;20184;-72
2021/03/29 06:35:57;;;;;;;9.07;2.20;;;;;;;8.02;85.43;101415.78;6286533;28;20195;-72
2021/03/29 06:39:13;;;;;;;4.32;2.30;;;;;;;7.99;84.90;101403.41;6287680;28;20230;-73
2021/03/29 06:42:16;;;;;;;3.83;2.42;;;;;;;8.02;84.90;101404.91;6270217;28;20199;-73
2021/03/29 06:45:21;;;;;;;7.20;2.38;;;;;;;8.10;84.42;101394.81;6286554;28;20507;-73
2021/03/29 06:48:30;;;;;;;5.72;2.08;;;;;;;8.18;83.83;101396.59;6286811;28;20184;-72
2021/03/29 06:51:34;;;;;;;7.93;2.10;;;;;;;8.17;83.33;101373.97;6287665;28;20188;-72
2021/03/29 06:54:40;;;;;;;7.20;2.80;;;;;;;8.26;83.69;101382.91;6286475;28;20204;-73
2021/03/29 06:57:44;;;;;;;7.03;2.55;;;;;;;8.36;82.40;101378.03;6269158;28;20468;-73
2021/03/29 07:00:54;;;;;;;6.95;2.22;;;;;;;8.55;81.75;101385.59;6287128;28;20207;-73
2021/03/29 07:03:58;;;;;;;4.28;2.35;;;;;;;8.61;81.07;101386.72;6287885;28;20184;-74
2021/03/29 07:07:03;;;;;;;6.03;2.50;;;;;;;8.59;80.61;101394.22;6287154;28;20246;-73
2021/03/29 07:10:10;;;;;;;2.78;2.10;;;;;;;8.58;80.42;101393.38;6286156;28;20411;-72
2021/03/29 07:13:18;;;;;;;8.32;2.28;;;;;;;8.57;80.56;101380.81;6287539;28;20238;-73
2021/03/29 07:16:25;;;;;;;6.13;2.20;;;;;;;8.60;80.96;101394.00;6287499;28;20195;-72
2021/03/29 07:19:31;;;;;;;8.02;2.30;;;;;;;8.63;80.42;101385.47;6286039;28;20184;-72
2021/03/29 07:22:36;;;;;;;6.32;2.10;;;;;;;8.72;80.40;101378.91;6287248;28;20192;-73
2021/03/29 07:25:40;;;;;;;4.65;1.80;;;;;;;8.73;79.89;101377.84;6287320;28;20212;-73
2021/03/29 07:28:44;;;;;;;6.95;1.83;;;;;;;8.85;79.44;101388.25;6286826;28;20188;-73
2021/03/29 07:31:50;;;;;;;8.27;2.50;;;;;;;8.93;78.53;101379.97;6287016;28;20184;-72
2021/03/29 07:34:54;;;;;;;9.65;1.88;;;;;;;8.96;78.05;101374.13;6286586;28;20195;-72
2021/03/29 07:37:58;;;;;;;4.75;1.92;;;;;;;9.02;76.49;101384.22;6285853;28;20188;-72
2021/03/29 07:41:02;;;;;;;6.25;2.38;;;;;;;9.06;77.43;101355.59;6287118;28;20224;-72
2021/03/29 07:44:16;;;;;;;5.90;2.20;;;;;;;9.31;76.68;101368.63;6286683;28;20259;-73
2021/03/29 07:47:41;;;;;;;10.50;2.80;;;;;;;9.37;75.90;101369.72;6286937;28;20208;-73
2021/03/29 07:50:50;;;;;;;8.25;1.90;;;;;;;9.36;76.13;101381.66;6286595;28;20185;-73
2021/03/29 07:53:59;;;;;;;6.53;2.13;;;;;;;9.39;76.69;101362.19;6286508;28;20231;-73
2021/03/29 07:57:03;;;;;;;3.47;1.77;;;;;;;9.49;76.57;101373.59;6285516;28;20432;-72
2021/03/29 08:00:08;;;;;;;5.00;1.90;;;;;;;9.62;76.52;101376.44;6285435;28;20479;-73
2021/03/29 08:03:46;;;;;;;7.07;1.77;;;;;;;9.79;76.21;101380.53;6285412;28;20407;-73
2021/03/29 08:06:50;;;;;;;9.15;1.95;;;;;;;9.70;77.30;101373.56;6285285;28;20448;-73
2021/03/29 08:09:53;;;;;;;4.30;1.83;;;;;;;9.84;76.22;101380.78;6278872;28;20439;-72
2021/03/29 08:12:58;;;;;;;6.30;1.63;;;;;;;9.85;76.42;101384.34;6289767;28;20479;-72
2021/03/29 08:16:02;;;;;;;;;;;;;;;10.00;76.50;101368.72;6291086;28;20188;-73
2021/03/29 08:19:14;;;;;;;5.35;1.60;;;;;;;9.95;76.87;101365.75;6290754;28;19951;-74
2021/03/29 08:22:21;;;;;;;8.23;1.85;;;;;;;9.92;76.83;101361.53;6290601;28;20184;-73
2021/03/29 08:25:28;;;;;;;3.03;1.88;;;;;;;9.85;77.52;101363.38;6289598;28;20408;-73
2021/03/29 08:29:27;;;;;;;5.30;1.70;;;;;;;9.65;78.27;101370.59;6272780;28;20491;-72
2021/03/29 08:32:32;;;;;;;;;;;;;;;9.94;76.93;101375.81;6290617;28;19927;-73
2021/03/29 08:35:37;;;;;;;;;;;;;;;9.92;77.00;101367.00;6291602;28;19995;-74
2021/03/29 08:38:45;;;;;;;;;;;;;;;9.97;77.48;101358.22;6291096;28;19983;-74
2021/03/29 08:41:50;;;;;;;;;;;;;;;9.95;78.15;101369.31;6289819;28;20204;-74
2021/03/29 08:44:53;;;;;;;;;;;;;;;9.96;78.21;101362.81;6290513;28;19920;-74
2021/03/29 08:47:58;;;;;;;;;;;;;;;10.05;78.20;101361.63;6291029;28;19921;-74
2021/03/29 08:51:03;;;;;;;;;;;;;;;9.91;79.49;101359.84;6291016;28;19925;-73
2021/03/29 08:54:07;;;;;;;;;;;;;;;9.96;78.94;101349.19;6289432;28;19921;-74
2021/03/29 08:57:11;;;;;;;;;;;;;;;10.07;79.12;101347.78;6289665;28;20185;-74
2021/03/29 09:00:19;;;;;;;;;;;;;;;10.25;78.71;101329.03;6290635;28;19987;-73
2021/03/29 09:03:30;;;;;;;;;;;;;;;10.22;78.80;101331.34;6290609;28;20132;-74
2021/03/29 09:06:34;;;;;;;;;;;;;;;10.14;78.73;101342.41;6290266;28;19921;-73
2021/03/29 09:09:38;;;;;;;;;;;;;;;10.14;79.29;101342.41;6289762;28;20099;-73
2021/03/29 09:12:40;;;;;;;;;;;;;;;10.21;78.95;101348.72;6290580;28;19995;-73
2021/03/29 09:15:45;;;;;;;;;;;;;;;10.31;78.97;101338.28;6289907;28;19916;-73
2021/03/29 09:18:49;;;;;;;;;;;;;;;10.28;79.65;101338.69;6290334;28;19959;-73
2021/03/29 09:21:54;;;;;;;2.10;1.20;;;;;;;10.14;79.00;101328.78;6280704;28;19939;-73
2021/03/29 09:24:57;;;;;;;;;;;;;;;10.28;79.88;101344.16;6289952;28;19917;-73
2021/03/29 09:28:13;;;;;;;;;;;;;;;10.22;80.85;101334.06;6288634;28;20200;-74
2021/03/29 09:31:19;;;;;;;;;;;;;;;10.16;81.72;101329.41;6289812;28;19939;-73
2021/03/29 09:34:26;;;;;;;;;;;;;;;10.00;82.43;101325.94;6288762;28;19917;-74
2021/03/29 09:37:30;;;;;;;;;;;;;;;10.16;82.40;101326.69;6288505;28;19916;-73
2021/03/29 09:40:34;;;;;;;;;;;;;;;10.25;82.46;101333.63;6288755;28;19917;-73
2021/03/29 09:43:44;;;;;;;;;;;;;;;10.05;83.68;101328.91;6288751;28;19924;-73
2021/03/29 09:46:52;;;;;;;;;;;;;;;10.18;82.91;101317.25;6289207;28;19916;-74
2021/03/29 09:49:56;;;;;;;;;;;;;;;10.20;83.83;101311.59;6289360;28;19916;-72
2021/03/29 09:53:09;;;;;;;;;;;;;;;10.13;84.73;101306.13;6288606;28;19977;-74
2021/03/29 09:56:13;;;;;;;;;;;;;;;10.24;84.18;101299.25;6287203;28;19923;-74
2021/03/29 09:59:24;;;;;;;;;;;;;;;10.32;84.40;101309.97;6288292;28;19917;-74
2021/03/29 10:02:27;;;;;;;;;;;;;;;10.31;84.51;101305.56;6288174;28;20119;-73
2021/03/29 10:05:34;;;;;;;;;;;;;;;10.29;84.22;101308.50;6287724;28;20204;-73
2021/03/29 10:08:39;;;;;;;;;;;;;;;10.19;85.21;101307.19;6287908;28;20143;-74
2021/03/29 10:11:43;;;;;;;;;;;;;;;10.06;85.79;101297.88;6288617;28;19923;-73
2021/03/29 10:14:46;;;;;;;;;;;;;;;10.11;85.00;101293.69;6288748;28;19975;-73
2021/03/29 10:18:05;;;;;;;;;;;;;;;10.11;84.64;101293.69;6288751;28;19916;-73
2021/03/29 10:21:11;;;;;;;;;;;;;;;10.29;84.16;101296.75;6288513;28;19920;-74
2021/03/29 10:24:16;;;;;;;;;;;;;;;10.11;84.47;101293.69;6286771;28;19916;-73
2021/03/29 10:27:21;;;;;;;;;;;;;;;10.08;85.35;101293.06;6287169;28;20222;-74
2021/03/29 10:30:28;;;;;;;;;;;;;;;10.32;84.18;101301.81;6288258;28;19917;-73
2021/03/29 10:33:31;;;;;;;;;;;;;;;10.32;83.24;101302.66;6288399;28;19962;-74
2021/03/29 10:36:35;;;;;;;;;;;;;;;10.24;83.64;101293.78;6287293;28;19916;-73
2021/03/29 10:39:38;;;;;;;;;;;;;;;10.27;83.87;101298.84;6286836;28;19984;-73
2021/03/29 10:42:42;;;;;;;;;;;;;;;10.23;84.27;101303.00;6288276;28;19954;-73
2021/03/29 10:45:45;;;;;;;;;;;;;;;10.32;83.80;101296.34;6287940;28;19963;-73
2021/03/29 10:48:48;;;;;;;;;;;;;;;10.05;85.80;101290.75;6287404;28;19974;-73
2021/03/29 10:51:53;;;;;;;;;;;;;;;10.21;85.66;101300.50;6286932;28;19917;-73
2021/03/29 10:54:56;;;;;;;;;;;;;;;10.18;85.58;101295.44;6287679;28;19963;-73
2021/03/29 10:58:01;;;;;;;;;;;;;;;10.36;84.85;101298.47;6287755;28;19917;-74
2021/03/29 11:01:04;;;;;;;;;;;;;;;10.35;85.07;101293.22;6286920;28;20191;-73
2021/03/29 11:04:13;;;;;;;;;;;;;;;10.20;85.44;101297.94;6288033;28;19917;-73
2021/03/29 11:07:18;;;;;;;;;;;;;;;10.29;85.78;101281.22;6287758;28;19921;-73
2021/03/29 11:10:22;;;;;;;;;;;;;;;10.39;84.79;101270.78;6287366;28;19955;-72
2021/03/29 11:13:25;;;;;;;;;;;;;;;10.28;85.94;101289.59;6286567;28;20103;-73
2021/03/29 11:16:28;;;;;;;;;;;;;;;10.40;85.86;101298.91;6287283;28;19924;-73
2021/03/29 11:19:31;;;;;;;;;;;;;;;10.37;86.23;101297.41;6287476;28;19952;-74
2021/03/29 11:22:35;;;;;;;;;;;;;;;10.37;85.99;101291.97;6287922;28;19984;-73
2021/03/29 11:25:38;;;;;;;;;;;;;;;10.37;86.32;101277.47;6286338;28;20259;-73
2021/03/29 11:28:42;;;;;;;;;;;;;;;10.36;86.74;101273.06;6287631;28;19917;-73
2021/03/29 11:31:44;;;;;;;;;;;;;;;10.34;87.73;101278.72;6287901;28;19931;-73
2021/03/29 11:34:47;;;;;;;;;;;;;;;10.47;86.90;101261.56;6286647;28;19924;-73
2021/03/29 11:37:53;;;;;;;;;;;;;;;10.58;86.70;101269.97;6286104;28;20142;-73
2021/03/29 11:40:55;;;;;;;;;;;;;;;10.26;88.22;101275.34;6287816;28;19916;-72
2021/03/29 11:43:58;;;;;;;;;;;;;;;10.40;87.90;101266.97;6286237;28;20117;-72
2021/03/29 11:47:01;;;;;;;;;;;;;;;10.60;86.89;101256.13;6291799;28;19917;-73
2021/03/29 11:50:10;;;;;;;;;;;;;;;10.41;87.54;101252.31;6291989;28;19916;-73
2021/03/29 11:53:18;;;;;;;;;;;;;;;10.43;87.58;101249.38;6292285;28;19955;-73
2021/03/29 11:56:21;;;;;;;;;;;;;;;10.66;86.44;101225.28;6291977;28;20223;-73
2021/03/29 11:59:26;;;;;;;;;;;;;;;10.46;86.63;101218.94;6291794;28;19920;-72
2021/03/29 12:02:34;;;;;;;;;;;;;;;10.47;87.46;101213.31;6291050;28;19916;-72
2021/03/29 12:05:46;;;;;;;;;;;;;;;10.44;88.52;101218.31;6291413;28;19916;-72
2021/03/29 12:08:54;;;;;;;;;;;;;;;10.51;87.49;101219.16;6291481;28;19924;-73
2021/03/29 12:12:04;;;;;;;;;;;;;;;10.66;87.29;101208.91;6290597;28;20104;-73
2021/03/29 12:15:10;;;;;;;;;;;;;;;10.81;87.06;101209.53;6291815;28;19923;-72
2021/03/29 12:18:35;;;;;;;1.15;1.10;;;;;;;10.87;85.75;101205.97;6290040;28;20003;-72
2021/03/29 12:21:40;;;;;;;1.10;1.10;;;;;;;10.83;85.75;101207.47;6290698;28;19916;-72
2021/03/29 12:24:47;;;;;;;1.23;1.23;;;;;;;10.97;85.13;101192.75;6289695;28;20537;-72
2021/03/29 12:27:52;;;;;;;1.13;1.13;;;;;;;10.96;85.06;101209.34;6289449;28;20425;-73
2021/03/29 12:30:56;;;;;;;1.20;1.20;;;;;;;11.05;85.28;101203.44;6290806;28;20184;-72
2021/03/29 12:34:01;;;;;;;1.00;1.00;;;;;;;11.24;83.98;101199.88;6272039;28;20206;-73
2021/03/29 12:37:06;;;;;;;1.10;1.10;;;;;;;11.34;83.56;101193.97;6289204;28;20249;-73
2021/03/29 12:40:14;;;;;;;2.65;1.20;;;;;;;11.38;83.13;101191.63;6289345;28;20186;-72
2021/03/29 12:43:32;;;;;;;1.15;1.10;;;;;;;11.47;83.08;101168.50;6289208;28;20542;-72
2021/03/29 12:46:37;;;;;;;1.10;1.10;;;;;;;11.50;82.24;101168.06;6289915;28;20208;-72
2021/03/29 12:49:39;;;;;;;;;;;;;;;11.47;82.22;101154.84;6290395;28;20252;-73
2021/03/29 12:52:43;;;;;;;;;;;;;;;11.53;81.60;101154.00;6290534;28;19995;-73
2021/03/29 12:55:47;;;;;;;;;;;;;;;11.61;81.01;101164.66;6290440;28;20195;-73
2021/03/29 12:58:50;;;;;;;;;;;;;;;11.69;80.88;101154.38;6289729;28;20235;-73
2021/03/29 13:01:54;;;;;;;;;;;;;;;11.63;81.29;101154.38;6281640;28;19925;-73
2021/03/29 13:04:58;;;;;;;;;;;;;;;11.67;81.44;101172.00;6290490;28;19921;-72
2021/03/29 13:08:06;;;;;;;;;;;;;;;11.71;80.67;101156.91;6289790;28;19920;-72
2021/03/29 13:11:26;;;;;;;1.58;1.05;;;;;;;11.80;80.72;101169.25;6288896;28;19928;-73
2021/03/29 13:14:39;;;;;;;1.95;1.20;;;;;;;12.00;80.01;101150.00;6289557;28;20247;-73
2021/03/29 13:17:43;;;;;;;4.05;1.10;;;;;;;12.02;79.83;101159.66;6289696;28;20188;-73
2021/03/29 13:20:47;;;;;;;0.80;0.80;;;;;;;11.97;79.91;101170.41;6289398;28;20199;-73
2021/03/29 13:23:50;;;;;;;1.83;0.90;;;;;;;11.99;80.08;101159.28;6288310;28;20463;-73
2021/03/29 13:26:54;;;;;;;0.90;0.90;;;;;;;12.17;79.55;101157.47;6288113;28;20208;-73
2021/03/29 13:30:03;;;;;;;2.03;0.90;;;;;;;12.26;78.89;101145.22;6289394;28;20191;-73
2021/03/29 13:33:14;;;;;;;3.60;1.38;;;;;;;12.31;78.69;101153.59;6289287;28;20223;-73
2021/03/29 13:36:20;;;;;;;0.88;0.88;;;;;;;12.49;78.28;101140.00;6287938;28;20248;-72
2021/03/29 13:39:23;;;;;;;2.25;1.00;;;;;;;12.42;77.85;101139.22;6288125;28;20251;-72
2021/03/29 13:42:27;;;;;;;2.17;1.00;;;;;;;12.60;78.05;101160.34;6288859;28;20191;-73
2021/03/29 13:45:31;;;;;;;6.57;1.03;;;;;;;12.51;77.92;101146.09;6288900;28;20191;-74
2021/03/29 13:48:37;;;;;;;;;;;;;;;12.42;77.94;101138.38;6289245;28;20619;-73
2021/03/29 13:51:41;;;;;;;;;;;;;;;12.54;77.61;101151.13;6288273;28;19923;-74
2021/03/29 13:54:45;;;;;;;;;;;;;;;12.49;77.62;101152.84;6288220;28;19916;-73
2021/03/29 13:57:50;;;;;;;;;;;;;;;12.54;77.71;101153.88;6289392;28;19917;-74
2021/03/29 14:00:55;;;;;;;;;;;;;;;12.44;77.85;101158.16;6288881;28;19963;-74
2021/03/29 14:04:05;;;;;;;;;;;;;;;12.49;77.98;101145.47;6286650;28;19916;-72
2021/03/29 14:07:10;;;;;;;;;;;;;;;12.38;78.03;101137.13;6287012;28;19923;-74
2021/03/29 14:10:15;;;;;;;;;;;;;;;12.41;78.25;101148.47;6288685;28;19955;-73
2021/03/29 14:13:25;;;;;;;;;;;;;;;12.51;77.82;101148.81;6287534;28;19924;-73
2021/03/29 14:16:28;;;;;;;;;;;;;;;12.49;77.75;101144.63;6287572;28;20104;-73
2021/03/29 14:19:32;;;;;;;;;;;;;;;12.44;77.82;101147.19;6287360;28;19923;-73
2021/03/29 14:22:35;;;;;;;;;;;;;;;12.49;77.53;101144.63;6288446;28;19999;-73
2021/03/29 14:25:37;;;;;;;;;;;;;;;12.45;77.91;101144.22;6288391;28;19952;-74
2021/03/29 14:28:45;;;;;;;;;;;;;;;12.47;77.86;101147.59;6287101;28;19917;-74
2021/03/29 14:31:48;;;;;;;;;;;;;;;12.41;77.90;101145.75;6288583;28;19916;-73
2021/03/29 14:34:57;;;;;;;;;;;;;;;12.47;78.14;101149.50;6287548;28;19917;-72
2021/03/29 14:38:17;;;;;;;;;;;;;;;12.40;77.88;101156.94;6287966;28;19916;-72
2021/03/29 14:41:40;;;;;;;;;;;;;;;12.48;77.58;101154.75;6287426;28;19923;-72
2021/03/29 14:44:45;;;;;;;;;;;;;;;12.47;77.90;101168.66;6287338;28;20195;-73
2021/03/29 14:47:47;;;;;;;;;;;;;;;12.43;78.12;101151.81;6287826;28;19916;-73
2021/03/29 14:50:51;;;;;;;;;;;;;;;12.55;77.53;101139.13;6279869;28;19959;-73
2021/03/29 14:53:54;;;;;;;;;;;;;;;12.63;77.13;101134.44;6286708;28;19917;-73
2021/03/29 14:56:58;;;;;;;;;;;;;;;12.62;77.28;101127.28;6286839;28;19917;-72
2021/03/29 15:00:10;;;;;;;;;;;;;;;12.57;77.15;101125.22;6286483;28;19984;-73
2021/03/29 15:03:26;;;;;;;;;;;;;;;12.51;77.18;101121.47;6287345;28;19922;-73